Time;durP1;ratioP1;P1;durP2;ratioP2;P2;SDS_P1;SDS_P2;PMS_P1;PMS_P2;Temp;Humidity;BMP_temperature;BMP_pressure;BME280_temperature;BME280_humidity;BME280_pressure;Samples;Min_cycle;Max_cycle;Signal;HPM_P1;HPM_P2
2021/01/24 00:02:02;;;;;;;2.70;1.98;;;14.60;59.20;;;;;;5032539;28;20030;-48
2021/01/24 00:04:29;;;;;;;3.50;2.15;;;14.50;59.20;;;;;;5035770;28;20090;-48
2021/01/24 00:06:54;;;;;;;3.97;2.20;;;14.60;59.30;;;;;;5035918;28;20115;-47
2021/01/24 00:09:20;;;;;;;3.13;1.83;;;14.60;59.30;;;;;;5035683;28;20083;-48
2021/01/24 00:11:46;;;;;;;2.50;1.85;;;14.50;59.30;;;;;;5035586;28;20036;-48
2021/01/24 00:14:11;;;;;;;3.38;1.92;;;14.50;59.30;;;;;;5035914;28;20024;-48
2021/01/24 00:16:37;;;;;;;3.08;1.98;;;14.50;59.30;;;;;;5035834;28;20464;-49
2021/01/24 00:19:02;;;;;;;2.70;1.80;;;14.50;59.40;;;;;;5035833;28;20104;-49
2021/01/24 00:21:28;;;;;;;2.72;1.90;;;14.50;59.40;;;;;;5035887;28;20072;-51
2021/01/24 00:23:53;;;;;;;3.17;1.73;;;14.40;59.40;;;;;;5035216;28;20025;-46
2021/01/24 00:26:19;;;;;;;3.42;2.20;;;14.40;59.40;;;;;;5035259;28;20033;-48
2021/01/24 00:28:44;;;;;;;3.65;1.95;;;14.40;59.40;;;;;;5035300;28;20055;-47
2021/01/24 00:31:10;;;;;;;4.30;2.17;;;14.40;59.40;;;;;;5035595;28;20029;-47
2021/01/24 00:33:36;;;;;;;2.65;1.55;;;14.40;59.50;;;;;;5035372;28;20025;-48
2021/01/24 00:36:01;;;;;;;2.95;1.98;;;14.40;59.50;;;;;;5035199;28;20128;-48
2021/01/24 00:38:27;;;;;;;2.25;1.70;;;14.40;59.50;;;;;;5017676;28;20047;-47
2021/01/24 00:40:53;;;;;;;2.83;1.88;;;14.40;59.60;;;;;;5035067;28;20041;-47
2021/01/24 00:43:18;;;;;;;2.75;1.60;;;14.30;59.50;;;;;;5035116;28;20116;-47
2021/01/24 00:45:45;;;;;;;1.98;1.60;;;17.70;61.40;;;;;;5035232;28;20026;-47
2021/01/24 00:48:10;;;;;;;2.08;1.65;;;14.30;59.50;;;;;;5035125;28;20032;-47
2021/01/24 00:50:36;;;;;;;1.98;1.77;;;14.30;59.50;;;;;;5035202;28;20025;-48
2021/01/24 00:53:01;;;;;;;2.15;1.55;;;14.30;59.60;;;;;;5034897;28;20030;-48
2021/01/24 00:55:27;;;;;;;3.05;1.73;;;14.30;59.60;;;;;;5034848;28;20390;-50
2021/01/24 00:57:52;;;;;;;2.08;1.45;;;14.50;59.70;;;;;;5035041;28;20026;-48
2021/01/24 01:00:19;;;;;;;1.63;1.50;;;14.30;59.60;;;;;;5034758;28;20029;-47
2021/01/24 01:02:44;;;;;;;2.22;1.60;;;14.30;59.60;;;;;;5034561;28;20029;-48
2021/01/24 01:05:10;;;;;;;2.13;1.60;;;14.30;59.60;;;;;;5034592;28;20063;-48
2021/01/24 01:07:36;;;;;;;2.00;1.55;;;14.20;59.50;;;;;;5034797;28;20056;-47
2021/01/24 01:10:02;;;;;;;1.92;1.67;;;14.00;59.50;;;;;;5034403;28;20034;-48
2021/01/24 01:12:28;;;;;;;1.90;1.08;;;14.20;59.60;;;;;;5034626;28;20033;-48
2021/01/24 01:14:53;;;;;;;2.60;1.77;;;14.20;59.60;;;;;;5033429;28;20022;-49
2021/01/24 01:17:19;;;;;;;1.55;1.40;;;14.20;59.60;;;;;;5034406;28;20022;-49
2021/01/24 01:19:44;;;;;;;2.47;1.60;;;14.20;59.60;;;;;;5035043;28;20049;-49
2021/01/24 01:22:10;;;;;;;2.30;1.90;;;14.20;59.60;;;;;;5034312;28;20025;-49
2021/01/24 01:24:36;;;;;;;1.88;1.38;;;14.10;59.60;;;;;;5034495;28;20029;-49
2021/01/24 01:27:01;;;;;;;1.90;1.70;;;14.10;59.60;;;;;;5034154;28;20037;-48
2021/01/24 01:29:27;;;;;;;2.65;1.42;;;14.10;59.70;;;;;;5034084;28;20025;-49
2021/01/24 01:31:52;;;;;;;2.75;1.50;;;14.10;59.60;;;;;;5034441;28;20029;-49
2021/01/24 01:34:18;;;;;;;1.60;1.48;;;14.10;59.70;;;;;;5034197;28;20017;-48
2021/01/24 01:36:44;;;;;;;1.50;1.30;;;14.10;59.70;;;;;;5034237;28;20018;-47
2021/01/24 01:39:09;;;;;;;3.10;1.27;;;14.10;59.70;;;;;;5033902;28;20022;-48
2021/01/24 01:41:35;;;;;;;1.73;1.25;;;14.10;59.70;;;;;;5034032;28;20033;-46
2021/01/24 01:44:02;;;;;;;2.72;1.73;;;14.10;59.70;;;;;;5034066;28;20018;-47
2021/01/24 01:46:28;;;;;;;2.78;1.67;;;14.10;59.80;;;;;;5033992;28;20025;-48
2021/01/24 01:48:55;;;;;;;2.25;1.40;;;14.00;59.70;;;;;;5034051;28;20033;-49
2021/01/24 01:51:21;;;;;;;4.03;2.05;;;14.00;59.80;;;;;;5033600;28;20029;-48
2021/01/24 01:53:47;;;;;;;1.55;1.45;;;14.00;59.70;;;;;;5033889;28;20357;-48
2021/01/24 01:56:13;;;;;;;1.50;1.40;;;14.00;59.70;;;;;;5015887;28;20387;-47
2021/01/24 01:58:42;;;;;;;1.38;1.15;;;14.00;59.70;;;;;;5033703;28;20026;-47
2021/01/24 02:01:49;;;;;;;1.27;1.17;;;14.00;59.80;;;;;;5033631;28;20426;-48
2021/01/24 02:04:27;;;;;;;1.50;1.40;;;14.00;59.80;;;;;;5033423;28;20034;-47
2021/01/24 02:06:59;;;;;;;2.03;1.83;;;14.00;59.80;;;;;;5033337;28;20038;-47
2021/01/24 02:09:27;;;;;;;1.75;1.30;;;14.00;59.80;;;;;;5015603;28;20498;-47
2021/01/24 02:12:08;;;;;;;1.50;1.33;;;13.90;59.80;;;;;;5033175;28;20035;-48
2021/01/24 02:14:39;;;;;;;1.42;1.30;;;13.90;59.90;;;;;;5033483;28;20026;-48
2021/01/24 02:17:08;;;;;;;1.40;1.30;;;13.90;59.80;;;;;;5033180;28;20099;-46
2021/01/24 02:20:05;;;;;;;1.35;1.25;;;13.90;59.90;;;;;;5033663;28;20021;-48
2021/01/24 02:22:36;;;;;;;1.75;1.40;;;13.90;59.80;;;;;;5013355;28;20054;-46
2021/01/24 02:25:15;;;;;;;1.65;1.38;;;13.90;59.90;;;;;;5012787;28;20485;-49
2021/01/24 02:27:53;;;;;;;2.35;1.35;;;13.90;59.90;;;;;;5013299;28;20044;-47
2021/01/24 02:30:29;;;;;;;1.38;1.10;;;13.90;59.90;;;;;;5013013;28;20025;-49
2021/01/24 02:33:05;;;;;;;1.70;1.60;;;13.90;59.90;;;;;;5013362;28;20109;-47
2021/01/24 02:35:36;;;;;;;1.80;1.38;;;13.90;59.90;;;;;;5013029;28;20513;-46
2021/01/24 02:38:03;;;;;;;2.15;1.55;;;13.80;59.90;;;;;;5013368;28;20038;-47
2021/01/24 02:40:33;;;;;;;1.45;1.35;;;13.80;59.90;;;;;;5013128;28;20108;-47
2021/01/24 02:43:04;;;;;;;1.50;1.40;;;13.80;60.00;;;;;;5012678;28;20108;-45
2021/01/24 02:45:32;;;;;;;1.98;1.52;;;13.90;60.00;;;;;;5012894;28;20457;-48
2021/01/24 02:48:02;;;;;;;1.27;1.17;;;14.10;60.00;;;;;;5012806;28;20517;-47
2021/01/24 02:50:30;;;;;;;1.55;1.17;;;13.80;59.90;;;;;;5012918;28;20473;-49
2021/01/24 02:52:59;;;;;;;1.45;1.17;;;13.80;59.90;;;;;;5012994;28;20104;-51
2021/01/24 02:55:26;;;;;;;1.60;1.40;;;13.80;59.90;;;;;;4995169;28;20156;-48
2021/01/24 02:57:53;;;;;;;1.88;1.65;;;13.80;59.90;;;;;;4995081;28;20515;-48
2021/01/24 03:00:19;;;;;;;1.60;1.40;;;13.80;60.00;;;;;;5012821;28;20092;-48
2021/01/24 03:02:45;;;;;;;1.20;1.10;;;13.80;59.90;;;;;;5012637;28;20454;-48
2021/01/24 03:05:11;;;;;;;1.20;1.10;;;13.80;59.90;;;;;;5012851;28;20101;-47
2021/01/24 03:07:37;;;;;;;1.15;1.05;;;13.70;60.00;;;;;;5011928;28;20029;-46
2021/01/24 03:10:04;;;;;;;1.88;1.23;;;13.70;59.90;;;;;;5012746;28;20137;-48
2021/01/24 03:12:37;;;;;;;1.13;1.02;;;13.70;59.90;;;;;;5012501;28;20049;-47
2021/01/24 03:15:04;;;;;;;1.55;1.20;;;13.70;59.90;;;;;;5012505;28;20021;-47
2021/01/24 03:17:34;;;;;;;2.00;1.30;;;13.70;59.90;;;;;;5012456;28;20033;-46
2021/01/24 03:20:04;;;;;;;1.23;1.13;;;13.70;59.90;;;;;;5015928;28;20143;-47
2021/01/24 03:22:30;;;;;;;0.90;0.90;;;13.70;59.90;;;;;;5032433;28;20722;-47
2021/01/24 03:24:56;;;;;;;1.52;0.98;;;13.70;59.90;;;;;;5032387;28;20134;-47
2021/01/24 03:27:22;;;;;;;1.70;0.90;;;13.70;59.90;;;;;;5032268;28;20071;-49
2021/01/24 03:29:48;;;;;;;1.75;0.93;;;13.70;59.90;;;;;;5031998;28;20032;-48
2021/01/24 03:32:13;;;;;;;0.95;0.88;;;13.70;59.90;;;;;;5031995;28;20033;-48
2021/01/24 03:34:39;;;;;;;1.08;1.00;;;13.50;59.80;;;;;;5032004;28;20021;-48
2021/01/24 03:37:05;;;;;;;1.15;1.00;;;13.70;59.90;;;;;;5013676;28;20108;-47
2021/01/24 03:39:30;;;;;;;1.15;0.93;;;13.60;59.90;;;;;;5032038;28;20104;-49
2021/01/24 03:41:56;;;;;;;0.88;0.85;;;13.60;59.90;;;;;;5032217;28;20033;-47
2021/01/24 03:44:21;;;;;;;1.23;1.00;;;13.60;59.90;;;;;;5032129;28;20104;-52
2021/01/24 03:46:47;;;;;;;0.70;0.70;;;13.60;60.00;;;;;;5032196;28;20033;-49
2021/01/24 03:49:12;;;;;;;2.05;0.80;;;13.70;60.30;;;;;;5031870;28;20030;-47
2021/01/24 03:51:38;;;;;;;1.15;0.93;;;13.70;60.20;;;;;;5031919;28;20088;-47
2021/01/24 03:54:04;;;;;;;1.30;0.90;;;13.80;60.50;;;;;;5032033;28;20059;-48
2021/01/24 03:56:29;;;;;;;1.13;1.02;;;13.80;60.70;;;;;;5031921;28;20140;-48
2021/01/24 03:58:55;;;;;;;0.70;0.70;;;13.90;60.90;;;;;;5031820;28;20024;-47
2021/01/24 04:01:20;;;;;;;1.15;0.73;;;14.00;60.50;;;;;;5031948;28;20280;-48
2021/01/24 04:03:46;;;;;;;0.68;0.60;;;14.00;60.40;;;;;;5031952;28;20108;-51
2021/01/24 04:06:12;;;;;;;1.27;1.00;;;14.00;60.40;;;;;;5031476;28;20498;-51
2021/01/24 04:08:37;;;;;;;0.88;0.63;;;14.10;60.40;;;;;;5031765;28;20044;-48
2021/01/24 04:11:03;;;;;;;0.90;0.70;;;14.10;60.40;;;;;;5031695;28;20021;-48
2021/01/24 04:13:35;;;;;;;0.60;0.50;;;14.10;60.40;;;;;;5031599;28;20032;-46
2021/01/24 04:16:00;;;;;;;1.00;0.80;;;14.00;60.30;;;;;;5031563;28;20022;-47
2021/01/24 04:18:26;;;;;;;0.60;0.60;;;14.00;60.20;;;;;;5031788;28;20036;-47
2021/01/24 04:20:51;;;;;;;0.90;0.80;;;13.90;80.80;;;;;;5032078;28;20045;-47
2021/01/24 04:23:17;;;;;;;0.60;0.50;;;14.10;60.00;;;;;;5031577;28;20532;-47
2021/01/24 04:25:43;;;;;;;0.90;0.68;;;13.90;60.00;;;;;;5031356;28;20029;-48
2021/01/24 04:28:08;;;;;;;0.85;0.65;;;13.90;60.00;;;;;;5031190;28;20109;-48
2021/01/24 04:30:34;;;;;;;0.50;0.50;;;13.90;60.00;;;;;;5031392;28;20046;-48
2021/01/24 04:32:59;;;;;;;0.50;0.40;;;13.90;60.00;;;;;;5031519;28;20025;-46
2021/01/24 04:35:25;;;;;;;0.82;0.40;;;13.80;60.00;;;;;;5031233;28;20036;-47
2021/01/24 04:37:51;;;;;;;1.20;0.45;;;13.80;60.00;;;;;;5031289;28;20029;-49
2021/01/24 04:40:17;;;;;;;0.88;0.60;;;13.70;59.90;;;;;;5031126;28;20056;-48
2021/01/24 04:42:43;;;;;;;1.17;0.95;;;13.70;59.90;;;;;;5031157;28;20030;-48
2021/01/24 04:45:10;;;;;;;0.55;0.55;;;13.70;59.90;;;;;;5031501;28;20025;-47
2021/01/24 04:47:40;;;;;;;0.90;0.60;;;13.70;59.90;;;;;;5031203;28;20492;-48
2021/01/24 04:50:07;;;;;;;0.95;0.50;;;13.70;59.90;;;;;;5035151;28;20104;-49
2021/01/24 04:52:33;;;;;;;0.50;0.40;;;13.70;59.90;;;;;;5034890;28;20027;-47
2021/01/24 04:55:01;;;;;;;0.70;0.40;;;13.70;59.90;;;;;;5034798;28;20025;-48
2021/01/24 04:57:26;;;;;;;0.55;0.40;;;13.70;59.90;;;;;;5034844;28;20025;-47
2021/01/24 04:59:52;;;;;;;0.73;0.50;;;13.60;59.80;;;;;;5034742;28;20021;-48
2021/01/24 05:02:18;;;;;;;0.60;0.40;;;13.70;59.80;;;;;;5034688;28;20025;-48
2021/01/24 05:04:44;;;;;;;1.27;0.60;;;13.60;59.80;;;;;;5016803;28;20109;-49
2021/01/24 05:07:09;;;;;;;0.60;0.60;;;13.60;59.80;;;;;;5034521;28;20556;-48
2021/01/24 05:09:35;;;;;;;0.75;0.43;;;13.60;59.80;;;;;;5034862;28;20049;-47
2021/01/24 05:12:01;;;;;;;0.43;0.40;;;13.60;59.80;;;;;;5034761;28;20051;-46
2021/01/24 05:14:26;;;;;;;0.50;0.40;;;13.50;59.80;;;;;;5034234;28;20479;-47
2021/01/24 05:16:53;;;;;;;0.50;0.50;;;13.60;59.80;;;;;;5034362;28;20030;-48
2021/01/24 05:19:23;;;;;;;0.63;0.40;;;13.60;59.80;;;;;;5016796;28;20488;-49
2021/01/24 05:21:50;;;;;;;0.95;0.52;;;13.60;59.80;;;;;;5034938;28;20470;-48
2021/01/24 05:24:17;;;;;;;0.50;0.35;;;13.50;59.80;;;;;;5034300;28;20025;-50
2021/01/24 05:26:44;;;;;;;0.68;0.40;;;13.50;59.70;;;;;;5034091;28;20040;-47
2021/01/24 05:29:22;;;;;;;0.82;0.50;;;13.50;59.70;;;;;;5034467;28;20017;-46
2021/01/24 05:31:51;;;;;;;0.65;0.45;;;13.50;59.70;;;;;;5034229;28;20030;-49
2021/01/24 05:34:17;;;;;;;0.90;0.65;;;13.50;59.80;;;;;;5034068;28;20033;-47
2021/01/24 05:36:46;;;;;;;1.05;0.40;;;13.50;59.80;;;;;;5034319;28;20025;-47
2021/01/24 05:39:13;;;;;;;0.52;0.52;;;13.50;59.80;;;;;;5034272;28;20033;-47
2021/01/24 05:41:39;;;;;;;0.57;0.40;;;13.40;59.70;;;;;;5034247;28;20033;-47
2021/01/24 05:44:12;;;;;;;0.40;0.40;;;13.60;59.80;;;;;;5033880;28;20083;-47
2021/01/24 05:46:38;;;;;;;0.80;0.70;;;13.60;59.90;;;;;;5033610;28;20038;-48
2021/01/24 05:49:05;;;;;;;0.52;0.40;;;13.60;60.00;;;;;;5033850;28;20353;-48
2021/01/24 05:51:37;;;;;;;0.50;0.45;;;13.70;60.20;;;;;;5033691;28;20690;-46
2021/01/24 05:54:03;;;;;;;0.93;0.60;;;13.70;60.10;;;;;;5033472;28;20043;-51
2021/01/24 05:56:35;;;;;;;0.52;0.40;;;13.80;60.00;;;;;;5033913;28;20021;-49
2021/01/24 05:59:03;;;;;;;0.60;0.35;;;13.80;60.10;;;;;;5033944;28;20033;-49
2021/01/24 06:01:30;;;;;;;0.90;0.55;;;13.80;60.20;;;;;;5032984;28;20040;-47
2021/01/24 06:03:58;;;;;;;0.45;0.35;;;13.90;60.20;;;;;;5033424;28;20030;-50
2021/01/24 06:06:24;;;;;;;0.60;0.50;;;14.20;60.40;;;;;;5033549;28;20029;-47
2021/01/24 06:08:50;;;;;;;0.60;0.40;;;13.90;60.10;;;;;;5016128;28;20072;-48
2021/01/24 06:11:17;;;;;;;0.20;0.20;;;14.00;60.20;;;;;;5033592;28;20380;-48
2021/01/24 06:13:47;;;;;;;0.38;0.30;;;14.00;60.20;;;;;;5033400;28;20486;-48
2021/01/24 06:16:29;;;;;;;0.25;0.25;;;14.00;60.20;;;;;;5033582;28;20060;-47
2021/01/24 06:19:02;;;;;;;0.35;0.20;;;14.10;60.20;;;;;;4999459;28;20088;-48
2021/01/24 06:21:42;;;;;;;0.40;0.30;;;14.20;60.10;;;;;;5033981;28;20045;-49
2021/01/24 06:24:37;;;;;;;0.40;0.28;;;14.20;60.00;;;;;;5033192;28;20542;-49
2021/01/24 06:27:05;;;;;;;0.30;0.30;;;14.30;60.00;;;;;;5033074;28;20041;-47
2021/01/24 06:29:31;;;;;;;0.30;0.28;;;14.40;60.10;;;;;;5032915;28;20104;-47
2021/01/24 06:31:57;;;;;;;0.15;0.15;;;14.40;60.10;;;;;;5033123;28;20116;-49
2021/01/24 06:34:37;;;;;;;0.20;0.20;;;14.50;59.90;;;;;;5032933;28;20097;-47
2021/01/24 06:37:07;;;;;;;0.30;0.20;;;14.50;59.90;;;;;;5015116;28;20036;-47
2021/01/24 06:39:52;;;;;;;0.32;0.30;;;14.50;59.90;;;;;;5015435;28;20067;-47
2021/01/24 06:42:46;;;;;;;0.30;0.20;;;14.60;59.90;;;;;;5033235;28;20529;-48
2021/01/24 06:45:27;;;;;;;0.40;0.30;;;14.60;59.70;;;;;;5032932;28;20113;-47
2021/01/24 06:47:54;;;;;;;1.85;0.30;;;14.40;59.70;;;;;;5032852;28;20033;-47
2021/01/24 06:51:02;;;;;;;0.63;0.20;;;14.60;59.70;;;;;;5032640;28;20029;-49
2021/01/24 06:53:28;;;;;;;0.45;0.38;;;14.70;59.70;;;;;;5027538;28;20056;-47
2021/01/24 06:55:56;;;;;;;0.20;0.20;;;14.70;59.60;;;;;;5032899;28;20464;-47
2021/01/24 06:58:30;;;;;;;0.20;0.20;;;14.70;59.50;;;;;;5032785;28;20033;-48
2021/01/24 07:01:30;;;;;;;0.30;0.30;;;14.70;59.50;;;;;;5032854;28;20117;-47
2021/01/24 07:04:20;;;;;;;0.50;0.28;;;14.70;59.40;;;;;;5032575;28;20048;-46
2021/01/24 07:06:50;;;;;;;;;;;14.70;59.30;;;;;;5032869;28;20045;-47
2021/01/24 07:09:27;;;;;;;0.30;0.20;;;14.70;59.30;;;;;;5032596;28;19920;-48
2021/01/24 07:11:52;;;;;;;1.38;0.20;;;14.70;59.30;;;;;;5031594;28;20029;-48
2021/01/24 07:14:38;;;;;;;0.30;0.30;;;14.60;59.30;;;;;;5032617;28;20035;-47
2021/01/24 07:17:12;;;;;;;0.20;0.20;;;14.60;59.40;;;;;;5032003;28;20025;-48
2021/01/24 07:19:49;;;;;;;0.30;0.30;;;14.60;59.20;;;;;;5032075;28;20033;-47
2021/01/24 07:22:24;;;;;;;0.35;0.30;;;14.60;59.30;;;;;;5032676;28;20810;-49
2021/01/24 07:24:51;;;;;;;0.30;0.30;;;14.60;59.30;;;;;;5015488;28;20025;-49
2021/01/24 07:27:27;;;;;;;0.35;0.30;;;14.60;59.30;;;;;;5032206;28;20377;-47
2021/01/24 07:29:52;;;;;;;0.50;0.30;;;14.60;59.30;;;;;;5031895;28;20022;-50
2021/01/24 07:32:21;;;;;;;0.40;0.30;;;14.60;59.30;;;;;;5032066;28;20032;-48
2021/01/24 07:34:49;;;;;;;0.70;0.40;;;14.50;59.10;;;;;;5031911;28;20013;-48
2021/01/24 07:37:15;;;;;;;0.40;0.20;;;14.50;59.10;;;;;;5032012;28;20029;-48
2021/01/24 07:39:42;;;;;;;0.70;0.30;;;14.50;59.00;;;;;;5031833;28;20075;-48
2021/01/24 07:42:08;;;;;;;0.47;0.47;;;14.50;59.00;;;;;;5032012;28;20025;-48
2021/01/24 07:44:34;;;;;;;0.20;0.20;;;14.50;59.10;;;;;;5031833;28;20022;-46
2021/01/24 07:47:00;;;;;;;0.85;0.50;;;14.40;59.30;;;;;;5031862;28;20033;-47
2021/01/24 07:49:25;;;;;;;0.22;0.22;;;14.50;59.20;;;;;;5031861;28;20034;-48
2021/01/24 07:51:52;;;;;;;0.60;0.40;;;14.50;59.20;;;;;;5031738;28;20026;-47
2021/01/24 07:54:18;;;;;;;0.20;0.20;;;14.50;59.20;;;;;;5031782;28;20452;-47
2021/01/24 07:56:45;;;;;;;0.38;0.38;;;14.50;59.10;;;;;;5031664;28;20078;-48
2021/01/24 07:59:11;;;;;;;0.55;0.30;;;14.50;59.20;;;;;;5031962;28;20026;-47
2021/01/24 08:01:37;;;;;;;0.95;0.28;;;14.50;59.20;;;;;;5031949;28;20036;-47
2021/01/24 08:04:04;;;;;;;1.27;0.40;;;14.80;59.30;;;;;;5031586;28;20160;-47
2021/01/24 08:06:34;;;;;;;1.02;0.40;;;14.60;59.10;;;;;;5031823;28;20033;-47
2021/01/24 08:09:00;;;;;;;0.82;0.50;;;14.50;58.90;;;;;;5031861;28;20021;-47
2021/01/24 08:11:25;;;;;;;1.65;0.40;;;14.60;59.00;;;;;;5031531;28;20029;-47
2021/01/24 08:13:52;;;;;;;0.75;0.30;;;14.50;58.90;;;;;;5031738;28;20380;-48
2021/01/24 08:16:22;;;;;;;1.50;0.47;;;14.60;58.80;;;;;;5031735;28;20026;-48
2021/01/24 08:18:51;;;;;;;0.60;0.30;;;14.60;58.70;;;;;;5031494;28;20036;-47
2021/01/24 08:21:18;;;;;;;0.60;0.35;;;14.60;58.60;;;;;;5032155;28;20121;-47
2021/01/24 08:23:45;;;;;;;0.30;0.30;;;14.70;58.70;;;;;;5015241;28;20041;-47
2021/01/24 08:26:11;;;;;;;0.50;0.40;;;14.70;58.70;;;;;;5035503;28;20029;-47
2021/01/24 08:28:37;;;;;;;0.90;0.38;;;14.70;58.70;;;;;;5035229;28;20439;-46
2021/01/24 08:31:04;;;;;;;1.20;0.40;;;14.80;58.70;;;;;;5035439;28;20021;-46
2021/01/24 08:33:30;;;;;;;0.82;0.40;;;14.80;78.10;;;;;;5035011;28;20029;-45
2021/01/24 08:36:16;;;;;;;1.05;0.47;;;14.80;58.70;;;;;;5035437;28;20013;-45
2021/01/24 08:38:42;;;;;;;0.63;0.43;;;14.90;58.80;;;;;;5035311;28;20042;-46
2021/01/24 08:41:09;;;;;;;1.83;0.77;;;14.70;58.90;;;;;;5035177;28;20017;-47
2021/01/24 08:43:35;;;;;;;13.43;0.65;;;15.00;59.20;;;;;;5034862;28;20030;-45
2021/01/24 08:46:26;;;;;;;1.50;0.47;;;15.00;59.10;;;;;;5034731;28;20056;-47
2021/01/24 08:49:08;;;;;;;1.73;0.82;;;15.00;59.00;;;;;;5034974;28;20017;-45
2021/01/24 08:51:49;;;;;;;1.50;0.40;;;15.00;58.90;;;;;;5035126;28;20029;-45
2021/01/24 08:54:17;;;;;;;2.40;0.40;;;15.00;58.80;;;;;;5034776;28;20033;-45
2021/01/24 08:56:42;;;;;;;6.13;0.50;;;15.00;58.70;;;;;;5034930;28;20064;-45
2021/01/24 08:59:18;;;;;;;1.98;0.40;;;15.10;58.80;;;;;;5034995;28;20029;-45
2021/01/24 09:01:45;;;;;;;3.80;0.63;;;15.00;58.50;;;;;;5035011;28;20112;-45
2021/01/24 09:04:25;;;;;;;0.82;0.50;;;15.00;58.50;;;;;;5035009;28;20103;-46
2021/01/24 09:07:02;;;;;;;0.52;0.40;;;15.00;58.50;;;;;;5034789;28;20427;-45
2021/01/24 09:09:28;;;;;;;1.23;0.30;;;15.10;58.50;;;;;;5034580;28;20025;-46
2021/01/24 09:11:54;;;;;;;2.10;0.40;;;15.10;58.40;;;;;;5034950;28;20024;-46
2021/01/24 09:14:20;;;;;;;1.08;0.32;;;15.20;58.40;;;;;;5034464;28;20052;-45
2021/01/24 09:16:45;;;;;;;1.08;0.40;;;15.10;58.20;;;;;;5016694;28;20029;-46
2021/01/24 09:19:11;;;;;;;1.15;0.40;;;15.50;58.30;;;;;;5016667;28;20029;-49
2021/01/24 09:21:36;;;;;;;4.35;0.35;;;15.70;58.10;;;;;;5035158;28;20041;-46
2021/01/24 09:24:02;;;;;;;2.20;0.65;;;15.60;57.90;;;;;;5034549;28;20112;-46
2021/01/24 09:26:28;;;;;;;2.85;0.32;;;15.60;57.90;;;;;;5034479;28;20064;-47
2021/01/24 09:28:53;;;;;;;2.53;0.40;;;15.70;57.90;;;;;;5034520;28;20028;-48
2021/01/24 09:31:19;;;;;;;2.53;0.43;;;15.70;57.70;;;;;;5034141;28;20021;-47
2021/01/24 09:33:44;;;;;;;3.33;0.40;;;15.90;57.70;;;;;;5034165;28;20029;-47
2021/01/24 09:36:10;;;;;;;1.48;0.75;;;15.90;57.50;;;;;;5033003;28;20495;-45
2021/01/24 09:38:35;;;;;;;1.13;0.40;;;15.90;57.40;;;;;;5016592;28;20036;-46
2021/01/24 09:41:01;;;;;;;2.60;0.70;;;15.90;57.30;;;;;;5034338;28;20036;-45
2021/01/24 09:43:26;;;;;;;1.50;0.60;;;15.90;57.10;;;;;;5034046;28;20109;-45
2021/01/24 09:45:52;;;;;;;2.22;0.60;;;16.10;56.90;;;;;;5034137;28;20384;-45
2021/01/24 09:48:18;;;;;;;0.95;0.30;;;16.30;56.40;;;;;;5034157;28;20025;-45
2021/01/24 09:50:43;;;;;;;2.88;0.65;;;16.50;55.70;;;;;;5033903;28;20026;-45
2021/01/24 09:53:09;;;;;;;1.27;0.40;;;17.10;55.70;;;;;;5033932;28;20018;-43
2021/01/24 09:55:34;;;;;;;3.80;0.60;;;16.70;55.20;;;;;;5034020;28;20025;-48
2021/01/24 09:58:00;;;;;;;2.03;0.60;;;16.80;55.00;;;;;;5033291;28;20025;-46
2021/01/24 10:00:25;;;;;;;3.38;0.57;;;16.90;55.00;;;;;;5033958;28;20014;-47
2021/01/24 10:02:51;;;;;;;1.85;0.70;;;16.90;55.00;;;;;;5033427;28;20064;-48
2021/01/24 10:05:17;;;;;;;0.85;0.47;;;16.90;55.30;;;;;;5033630;28;20415;-46
2021/01/24 10:07:42;;;;;;;0.50;0.35;;;16.90;55.50;;;;;;5033374;28;20392;-45
2021/01/24 10:10:08;;;;;;;1.02;0.45;;;16.90;55.40;;;;;;5015548;28;20049;-46
2021/01/24 10:12:34;;;;;;;0.52;0.40;;;17.00;55.30;;;;;;5033685;28;20049;-46
2021/01/24 10:14:59;;;;;;;2.33;0.60;;;17.10;55.50;;;;;;5033338;28;20072;-45
2021/01/24 10:17:25;;;;;;;3.13;0.50;;;17.10;55.50;;;;;;5033269;28;20033;-46
2021/01/24 10:19:50;;;;;;;2.92;0.60;;;17.20;55.50;;;;;;5033616;28;20021;-46
2021/01/24 10:22:16;;;;;;;3.92;0.50;;;17.30;55.40;;;;;;5033976;28;20420;-46
2021/01/24 10:24:41;;;;;;;3.78;0.60;;;17.30;55.30;;;;;;5033187;28;20017;-44
2021/01/24 10:27:07;;;;;;;4.38;0.90;;;17.50;55.20;;;;;;5033245;28;20507;-46
2021/01/24 10:29:33;;;;;;;3.80;0.55;;;17.60;55.10;;;;;;5033152;28;20053;-43
2021/01/24 10:31:58;;;;;;;1.67;0.50;;;17.60;54.90;;;;;;5033104;28;20030;-44
2021/01/24 10:34:24;;;;;;;2.60;0.63;;;17.70;54.80;;;;;;5032893;28;20034;-46
2021/01/24 10:36:49;;;;;;;2.47;0.77;;;17.70;54.80;;;;;;5033037;28;20029;-44
2021/01/24 10:39:15;;;;;;;2.00;0.52;;;17.70;54.80;;;;;;5032827;28;20025;-45
2021/01/24 10:41:40;;;;;;;3.70;0.70;;;17.70;54.80;;;;;;5032967;28;20029;-43
2021/01/24 10:44:06;;;;;;;2.78;0.60;;;17.60;54.70;;;;;;5033065;28;20018;-43
2021/01/24 10:46:32;;;;;;;1.88;0.73;;;17.60;54.70;;;;;;5032494;28;20036;-44
2021/01/24 10:48:59;;;;;;;1.17;0.30;;;17.60;54.70;;;;;;5032695;28;20025;-45
2021/01/24 10:51:25;;;;;;;1.83;0.50;;;17.60;54.60;;;;;;5033010;28;20048;-43
2021/01/24 10:53:50;;;;;;;0.73;0.43;;;17.50;54.70;;;;;;5032882;28;20025;-43
2021/01/24 10:56:18;;;;;;;1.70;0.45;;;17.40;54.60;;;;;;5032573;28;20047;-45
2021/01/24 10:58:43;;;;;;;2.22;0.70;;;17.50;54.70;;;;;;5032402;28;20060;-44
2021/01/24 11:01:09;;;;;;;0.43;0.38;;;17.50;54.70;;;;;;5032718;28;20049;-49
2021/01/24 11:03:34;;;;;;;5.65;1.08;;;17.40;54.80;;;;;;5032488;28;20435;-45
2021/01/24 11:06:00;;;;;;;1.17;0.40;;;17.40;55.00;;;;;;5032233;28;20022;-44
2021/01/24 11:08:25;;;;;;;1.10;0.60;;;17.40;54.80;;;;;;5032585;28;20033;-43
2021/01/24 11:10:52;;;;;;;2.78;0.60;;;17.40;54.80;;;;;;5032565;28;20020;-45
2021/01/24 11:13:17;;;;;;;1.02;0.40;;;17.40;55.00;;;;;;5032589;28;20033;-44
2021/01/24 11:15:44;;;;;;;1.20;0.47;;;17.30;55.00;;;;;;5032592;28;20156;-44
2021/01/24 11:18:10;;;;;;;1.80;0.50;;;17.30;55.10;;;;;;5032059;28;20108;-43
2021/01/24 11:20:35;;;;;;;1.23;0.50;;;17.20;55.20;;;;;;5032183;28;20101;-45
2021/01/24 11:23:01;;;;;;;0.95;0.30;;;17.20;55.10;;;;;;5032002;28;20187;-44
2021/01/24 11:25:26;;;;;;;2.15;0.55;;;17.10;55.10;;;;;;5032131;28;20045;-44
2021/01/24 11:27:52;;;;;;;1.48;0.57;;;17.20;55.10;;;;;;5032260;28;20041;-47
2021/01/24 11:30:19;;;;;;;2.08;0.63;;;17.10;55.20;;;;;;5032181;28;20030;-46
2021/01/24 11:32:44;;;;;;;1.40;0.63;;;17.10;55.40;;;;;;5014366;28;20040;-46
2021/01/24 11:35:12;;;;;;;1.73;0.60;;;17.10;55.50;;;;;;5014616;28;20021;-48
2021/01/24 11:37:39;;;;;;;1.77;0.60;;;17.00;55.50;;;;;;5032221;28;20021;-47
2021/01/24 11:40:06;;;;;;;1.02;0.50;;;17.10;55.60;;;;;;5031832;28;20029;-46
2021/01/24 11:42:32;;;;;;;0.80;0.57;;;17.00;55.00;;;;;;5031929;28;20021;-47
2021/01/24 11:44:58;;;;;;;0.88;0.40;;;17.00;55.60;;;;;;5031851;28;20018;-46
2021/01/24 11:47:26;;;;;;;1.38;0.40;;;17.30;55.40;;;;;;5032077;28;20037;-47
2021/01/24 11:49:51;;;;;;;1.90;0.75;;;17.20;55.70;;;;;;5032031;28;20097;-47
2021/01/24 11:52:17;;;;;;;1.25;0.60;;;17.30;54.70;;;;;;5031965;28;20121;-45
2021/01/24 11:54:43;;;;;;;0.77;0.50;;;17.30;54.90;;;;;;5032118;28;20425;-45
2021/01/24 11:57:08;;;;;;;1.10;0.50;;;17.40;54.20;;;;;;5031885;28;20392;-46
2021/01/24 11:59:34;;;;;;;2.28;0.50;;;17.30;53.90;;;;;;5035190;28;20033;-46
2021/01/24 12:02:00;;;;;;;0.88;0.50;;;17.30;53.70;;;;;;5036006;28;20033;-48
2021/01/24 12:04:25;;;;;;;3.95;0.55;;;17.30;53.60;;;;;;5035789;28;20040;-46
2021/01/24 12:06:51;;;;;;;1.40;0.47;;;17.30;54.20;;;;;;5035649;28;20037;-46
2021/01/24 12:09:16;;;;;;;1.17;0.70;;;17.20;53.70;;;;;;5035991;28;20052;-46
2021/01/24 12:11:42;;;;;;;1.20;0.50;;;17.20;53.70;;;;;;5035327;28;20029;-47
2021/01/24 12:14:07;;;;;;;1.55;0.55;;;17.30;53.70;;;;;;5035511;28;20013;-47
2021/01/24 12:16:33;;;;;;;1.45;0.60;;;17.20;53.60;;;;;;5035449;28;20029;-47
2021/01/24 12:18:58;;;;;;;1.70;0.55;;;17.30;53.60;;;;;;5035617;28;20030;-46
2021/01/24 12:21:24;;;;;;;1.95;0.57;;;17.30;53.50;;;;;;5036205;28;20046;-46
2021/01/24 12:23:49;;;;;;;1.23;0.40;;;17.50;53.50;;;;;;5017379;28;20089;-45
2021/01/24 12:26:15;;;;;;;1.50;0.52;;;17.30;53.20;;;;;;5035428;28;20500;-46
2021/01/24 12:28:40;;;;;;;2.15;0.43;;;17.40;53.10;;;;;;5035268;28;20033;-45
2021/01/24 12:31:06;;;;;;;1.15;0.50;;;17.40;53.00;;;;;;5034809;28;20021;-46
2021/01/24 12:33:32;;;;;;;1.25;0.30;;;17.50;52.90;;;;;;5034537;28;20026;-45
2021/01/24 12:35:57;;;;;;;2.72;0.80;;;17.40;52.80;;;;;;5035039;28;20022;-45
2021/01/24 12:38:23;;;;;;;1.23;0.40;;;17.60;53.30;;;;;;5035310;28;20025;-45
2021/01/24 12:40:49;;;;;;;1.15;0.65;;;17.60;52.60;;;;;;5035386;28;20116;-45
2021/01/24 12:43:14;;;;;;;1.60;0.50;;;17.60;52.50;;;;;;5035142;28;20059;-47
2021/01/24 12:45:40;;;;;;;0.50;0.50;;;18.00;52.60;;;;;;5000986;28;20057;-45
2021/01/24 12:48:06;;;;;;;1.25;0.40;;;17.70;53.10;;;;;;5035330;28;20025;-44
2021/01/24 12:50:31;;;;;;;1.67;0.50;;;17.50;52.40;;;;;;5035016;28;20043;-44
2021/01/24 12:52:58;;;;;;;1.77;0.60;;;17.50;52.40;;;;;;5017311;28;20606;-44